sensor_id;sensor_type;location;lat;lon;timestamp;P1;durP1;ratioP1;P2;durP2;ratioP2
6983;SDS011;3532;51.118;7.210;2023-08-24T00:01:36;4.87;;;4.07;;
6983;SDS011;3532;51.118;7.210;2023-08-24T00:04:01;6.47;;;3.90;;
6983;SDS011;3532;51.118;7.210;2023-08-24T00:06:27;6.33;;;3.80;;
6983;SDS011;3532;51.118;7.210;2023-08-24T00:08:52;6.10;;;4.70;;
6983;SDS011;3532;51.118;7.210;2023-08-24T00:11:17;4.70;;;3.90;;
6983;SDS011;3532;51.118;7.210;2023-08-24T00:13:43;5.97;;;3.60;;
6983;SDS011;3532;51.118;7.210;2023-08-24T00:16:16;4.60;;;4.03;;
6983;SDS011;3532;51.118;7.210;2023-08-24T00:18:42;5.73;;;4.03;;
6983;SDS011;3532;51.118;7.210;2023-08-24T00:21:07;6.50;;;4.03;;
6983;SDS011;3532;51.118;7.210;2023-08-24T00:23:34;8.87;;;4.50;;
6983;SDS011;3532;51.118;7.210;2023-08-24T00:25:59;5.27;;;4.20;;
6983;SDS011;3532;51.118;7.210;2023-08-24T00:28:25;4.30;;;3.60;;
6983;SDS011;3532;51.118;7.210;2023-08-24T00:30:51;5.40;;;3.83;;
6983;SDS011;3532;51.118;7.210;2023-08-24T00:33:16;5.77;;;3.90;;
6983;SDS011;3532;51.118;7.210;2023-08-24T00:35:41;5.07;;;3.90;;
6983;SDS011;3532;51.118;7.210;2023-08-24T00:38:07;5.73;;;4.60;;
6983;SDS011;3532;51.118;7.210;2023-08-24T00:40:33;5.63;;;4.07;;
6983;SDS011;3532;51.118;7.210;2023-08-24T00:42:59;5.93;;;5.03;;
6983;SDS011;3532;51.118;7.210;2023-08-24T00:45:24;5.50;;;4.20;;
6983;SDS011;3532;51.118;7.210;2023-08-24T00:47:50;4.73;;;4.17;;
6983;SDS011;3532;51.118;7.210;2023-08-24T00:50:17;6.87;;;4.20;;
6983;SDS011;3532;51.118;7.210;2023-08-24T00:52:42;4.80;;;4.27;;
6983;SDS011;3532;51.118;7.210;2023-08-24T00:55:08;4.67;;;4.20;;
6983;SDS011;3532;51.118;7.210;2023-08-24T00:57:35;4.20;;;3.80;;
6983;SDS011;3532;51.118;7.210;2023-08-24T01:00:02;6.13;;;4.50;;
6983;SDS011;3532;51.118;7.210;2023-08-24T01:02:30;4.90;;;4.50;;
6983;SDS011;3532;51.118;7.210;2023-08-24T01:04:56;5.47;;;4.30;;
6983;SDS011;3532;51.118;7.210;2023-08-24T01:07:21;6.07;;;4.20;;
6983;SDS011;3532;51.118;7.210;2023-08-24T01:09:47;6.40;;;4.17;;
6983;SDS011;3532;51.118;7.210;2023-08-24T01:12:20;5.37;;;4.37;;
6983;SDS011;3532;51.118;7.210;2023-08-24T01:17:56;6.53;;;4.13;;
6983;SDS011;3532;51.118;7.210;2023-08-24T01:20:26;5.07;;;3.87;;
6983;SDS011;3532;51.118;7.210;2023-08-24T01:22:58;5.13;;;4.10;;
6983;SDS011;3532;51.118;7.210;2023-08-24T01:28:26;5.47;;;4.10;;
6983;SDS011;3532;51.118;7.210;2023-08-24T01:30:52;6.27;;;4.87;;
6983;SDS011;3532;51.118;7.210;2023-08-24T01:33:17;10.87;;;4.33;;
6983;SDS011;3532;51.118;7.210;2023-08-24T01:35:42;6.60;;;3.83;;
6983;SDS011;3532;51.118;7.210;2023-08-24T01:38:09;5.97;;;3.60;;
6983;SDS011;3532;51.118;7.210;2023-08-24T01:43:26;4.53;;;4.13;;
6983;SDS011;3532;51.118;7.210;2023-08-24T01:45:55;5.43;;;4.17;;
6983;SDS011;3532;51.118;7.210;2023-08-24T01:48:21;3.73;;;3.33;;
6983;SDS011;3532;51.118;7.210;2023-08-24T01:50:47;5.27;;;3.67;;
6983;SDS011;3532;51.118;7.210;2023-08-24T01:53:13;4.50;;;4.10;;
6983;SDS011;3532;51.118;7.210;2023-08-24T01:55:38;4.43;;;3.87;;
6983;SDS011;3532;51.118;7.210;2023-08-24T01:58:04;4.47;;;3.63;;
6983;SDS011;3532;51.118;7.210;2023-08-24T02:00:29;6.07;;;4.30;;
6983;SDS011;3532;51.118;7.210;2023-08-24T02:02:54;4.00;;;3.37;;
6983;SDS011;3532;51.118;7.210;2023-08-24T02:05:20;4.50;;;4.10;;
6983;SDS011;3532;51.118;7.210;2023-08-24T02:07:45;5.13;;;4.20;;
6983;SDS011;3532;51.118;7.210;2023-08-24T02:10:10;4.00;;;3.60;;
6983;SDS011;3532;51.118;7.210;2023-08-24T02:12:36;6.23;;;3.67;;
6983;SDS011;3532;51.118;7.210;2023-08-24T02:15:01;4.20;;;3.50;;
6983;SDS011;3532;51.118;7.210;2023-08-24T02:17:27;4.80;;;3.90;;
6983;SDS011;3532;51.118;7.210;2023-08-24T02:19:52;5.57;;;4.33;;
6983;SDS011;3532;51.118;7.210;2023-08-24T02:22:18;4.53;;;3.77;;
6983;SDS011;3532;51.118;7.210;2023-08-24T02:24:43;4.07;;;3.60;;
6983;SDS011;3532;51.118;7.210;2023-08-24T02:27:09;6.27;;;3.93;;
6983;SDS011;3532;51.118;7.210;2023-08-24T02:29:34;5.30;;;3.77;;
6983;SDS011;3532;51.118;7.210;2023-08-24T02:31:59;6.97;;;4.10;;
6983;SDS011;3532;51.118;7.210;2023-08-24T02:34:25;4.90;;;3.57;;
6983;SDS011;3532;51.118;7.210;2023-08-24T02:36:50;4.97;;;3.60;;
6983;SDS011;3532;51.118;7.210;2023-08-24T02:39:15;3.83;;;3.43;;
6983;SDS011;3532;51.118;7.210;2023-08-24T02:41:41;4.30;;;3.90;;
6983;SDS011;3532;51.118;7.210;2023-08-24T02:44:06;4.23;;;3.83;;
6983;SDS011;3532;51.118;7.210;2023-08-24T02:46:31;4.50;;;4.10;;
6983;SDS011;3532;51.118;7.210;2023-08-24T02:48:57;10.50;;;4.50;;
6983;SDS011;3532;51.118;7.210;2023-08-24T02:51:22;5.30;;;3.80;;
6983;SDS011;3532;51.118;7.210;2023-08-24T02:53:48;5.00;;;3.67;;
6983;SDS011;3532;51.118;7.210;2023-08-24T02:56:13;4.50;;;4.10;;
6983;SDS011;3532;51.118;7.210;2023-08-24T02:58:39;6.40;;;4.13;;
6983;SDS011;3532;51.118;7.210;2023-08-24T03:01:05;7.03;;;4.20;;
6983;SDS011;3532;51.118;7.210;2023-08-24T03:03:34;9.67;;;3.90;;
6983;SDS011;3532;51.118;7.210;2023-08-24T03:06:00;8.27;;;4.37;;
6983;SDS011;3532;51.118;7.210;2023-08-24T03:08:27;5.23;;;4.33;;
6983;SDS011;3532;51.118;7.210;2023-08-24T03:10:52;5.83;;;4.00;;
6983;SDS011;3532;51.118;7.210;2023-08-24T03:13:18;5.17;;;4.40;;
6983;SDS011;3532;51.118;7.210;2023-08-24T03:15:43;6.73;;;4.27;;
6983;SDS011;3532;51.118;7.210;2023-08-24T03:18:12;4.27;;;3.70;;
6983;SDS011;3532;51.118;7.210;2023-08-24T03:20:38;4.13;;;3.60;;
6983;SDS011;3532;51.118;7.210;2023-08-24T03:23:03;5.57;;;4.00;;
6983;SDS011;3532;51.118;7.210;2023-08-24T03:25:29;7.33;;;4.20;;
6983;SDS011;3532;51.118;7.210;2023-08-24T03:27:54;4.40;;;3.70;;
6983;SDS011;3532;51.118;7.210;2023-08-24T03:30:20;7.67;;;4.23;;
6983;SDS011;3532;51.118;7.210;2023-08-24T03:32:46;7.17;;;4.07;;
6983;SDS011;3532;51.118;7.210;2023-08-24T03:35:11;4.97;;;3.80;;
6983;SDS011;3532;51.118;7.210;2023-08-24T03:37:36;4.50;;;3.77;;
6983;SDS011;3532;51.118;7.210;2023-08-24T03:40:02;4.37;;;3.93;;
6983;SDS011;3532;51.118;7.210;2023-08-24T03:42:29;4.17;;;3.47;;
6983;SDS011;3532;51.118;7.210;2023-08-24T03:44:54;4.03;;;3.63;;
6983;SDS011;3532;51.118;7.210;2023-08-24T03:47:19;5.03;;;3.50;;
6983;SDS011;3532;51.118;7.210;2023-08-24T03:49:44;5.77;;;4.37;;
6983;SDS011;3532;51.118;7.210;2023-08-24T03:52:10;5.03;;;3.90;;
6983;SDS011;3532;51.118;7.210;2023-08-24T03:54:35;5.97;;;4.17;;
6983;SDS011;3532;51.118;7.210;2023-08-24T03:57:01;4.40;;;4.00;;
6983;SDS011;3532;51.118;7.210;2023-08-24T03:59:26;5.97;;;4.00;;
6983;SDS011;3532;51.118;7.210;2023-08-24T04:01:52;5.33;;;4.37;;
6983;SDS011;3532;51.118;7.210;2023-08-24T04:04:17;5.23;;;4.07;;
6983;SDS011;3532;51.118;7.210;2023-08-24T04:06:42;5.50;;;3.63;;
6983;SDS011;3532;51.118;7.210;2023-08-24T04:09:08;3.73;;;3.43;;
6983;SDS011;3532;51.118;7.210;2023-08-24T04:11:34;4.30;;;3.90;;
6983;SDS011;3532;51.118;7.210;2023-08-24T04:13:59;7.97;;;3.77;;
6983;SDS011;3532;51.118;7.210;2023-08-24T04:16:25;7.07;;;4.60;;
6983;SDS011;3532;51.118;7.210;2023-08-24T04:18:50;4.60;;;4.20;;
6983;SDS011;3532;51.118;7.210;2023-08-24T04:21:15;5.27;;;4.70;;
6983;SDS011;3532;51.118;7.210;2023-08-24T04:23:41;5.33;;;4.00;;
6983;SDS011;3532;51.118;7.210;2023-08-24T04:26:10;7.73;;;5.03;;
6983;SDS011;3532;51.118;7.210;2023-08-24T04:28:36;3.97;;;3.57;;
6983;SDS011;3532;51.118;7.210;2023-08-24T04:31:01;7.77;;;4.17;;
6983;SDS011;3532;51.118;7.210;2023-08-24T04:33:26;7.60;;;4.53;;
6983;SDS011;3532;51.118;7.210;2023-08-24T04:35:52;6.70;;;4.63;;
6983;SDS011;3532;51.118;7.210;2023-08-24T04:38:17;4.43;;;4.03;;
6983;SDS011;3532;51.118;7.210;2023-08-24T04:43:16;6.00;;;3.77;;
6983;SDS011;3532;51.118;7.210;2023-08-24T04:45:42;5.43;;;3.97;;
6983;SDS011;3532;51.118;7.210;2023-08-24T04:48:07;5.20;;;4.70;;
6983;SDS011;3532;51.118;7.210;2023-08-24T04:50:32;6.93;;;4.43;;
6983;SDS011;3532;51.118;7.210;2023-08-24T04:52:58;4.47;;;3.63;;
6983;SDS011;3532;51.118;7.210;2023-08-24T04:55:23;4.27;;;3.73;;
6983;SDS011;3532;51.118;7.210;2023-08-24T04:57:48;4.60;;;3.80;;
6983;SDS011;3532;51.118;7.210;2023-08-24T05:00:14;5.13;;;4.67;;
6983;SDS011;3532;51.118;7.210;2023-08-24T05:02:41;8.17;;;5.53;;
6983;SDS011;3532;51.118;7.210;2023-08-24T05:05:07;6.33;;;5.17;;
6983;SDS011;3532;51.118;7.210;2023-08-24T05:07:35;5.43;;;4.53;;
6983;SDS011;3532;51.118;7.210;2023-08-24T05:10:00;5.43;;;4.43;;
6983;SDS011;3532;51.118;7.210;2023-08-24T05:12:25;5.13;;;4.63;;
6983;SDS011;3532;51.118;7.210;2023-08-24T05:14:51;6.50;;;4.93;;
6983;SDS011;3532;51.118;7.210;2023-08-24T05:17:16;5.87;;;5.17;;
6983;SDS011;3532;51.118;7.210;2023-08-24T05:19:41;8.97;;;4.43;;
6983;SDS011;3532;51.118;7.210;2023-08-24T05:22:07;9.50;;;5.17;;
6983;SDS011;3532;51.118;7.210;2023-08-24T05:24:32;6.20;;;5.57;;
6983;SDS011;3532;51.118;7.210;2023-08-24T05:26:57;7.20;;;5.37;;
6983;SDS011;3532;51.118;7.210;2023-08-24T05:29:23;5.90;;;5.30;;
6983;SDS011;3532;51.118;7.210;2023-08-24T05:31:48;7.27;;;5.93;;
6983;SDS011;3532;51.118;7.210;2023-08-24T05:34:13;7.83;;;5.87;;
6983;SDS011;3532;51.118;7.210;2023-08-24T05:36:39;8.13;;;5.70;;
6983;SDS011;3532;51.118;7.210;2023-08-24T05:39:04;7.03;;;5.93;;
6983;SDS011;3532;51.118;7.210;2023-08-24T05:41:29;7.93;;;5.43;;
6983;SDS011;3532;51.118;7.210;2023-08-24T05:43:55;8.00;;;5.37;;
6983;SDS011;3532;51.118;7.210;2023-08-24T05:46:22;7.33;;;5.40;;
6983;SDS011;3532;51.118;7.210;2023-08-24T05:48:47;8.83;;;5.50;;
6983;SDS011;3532;51.118;7.210;2023-08-24T05:51:12;6.00;;;5.33;;
6983;SDS011;3532;51.118;7.210;2023-08-24T05:53:38;5.37;;;4.87;;
6983;SDS011;3532;51.118;7.210;2023-08-24T05:56:05;6.20;;;5.60;;
6983;SDS011;3532;51.118;7.210;2023-08-24T05:58:31;6.83;;;5.77;;
6983;SDS011;3532;51.118;7.210;2023-08-24T06:00:59;7.07;;;5.83;;
6983;SDS011;3532;51.118;7.210;2023-08-24T06:03:25;7.70;;;6.00;;
6983;SDS011;3532;51.118;7.210;2023-08-24T06:05:50;7.57;;;5.60;;
6983;SDS011;3532;51.118;7.210;2023-08-24T06:08:16;5.83;;;5.00;;
6983;SDS011;3532;51.118;7.210;2023-08-24T06:10:41;8.97;;;6.00;;
6983;SDS011;3532;51.118;7.210;2023-08-24T06:13:06;11.00;;;6.47;;
6983;SDS011;3532;51.118;7.210;2023-08-24T06:15:32;7.47;;;6.43;;
6983;SDS011;3532;51.118;7.210;2023-08-24T06:17:57;8.87;;;4.93;;
6983;SDS011;3532;51.118;7.210;2023-08-24T06:20:24;6.90;;;6.20;;
6983;SDS011;3532;51.118;7.210;2023-08-24T06:22:49;11.23;;;5.77;;
6983;SDS011;3532;51.118;7.210;2023-08-24T06:25:15;6.73;;;4.97;;
6983;SDS011;3532;51.118;7.210;2023-08-24T06:27:40;7.43;;;6.47;;
6983;SDS011;3532;51.118;7.210;2023-08-24T06:30:06;12.13;;;6.47;;
6983;SDS011;3532;51.118;7.210;2023-08-24T06:32:32;6.43;;;5.40;;
6983;SDS011;3532;51.118;7.210;2023-08-24T06:34:57;10.23;;;5.83;;
6983;SDS011;3532;51.118;7.210;2023-08-24T06:37:22;9.33;;;6.50;;
6983;SDS011;3532;51.118;7.210;2023-08-24T06:39:48;7.97;;;5.90;;
6983;SDS011;3532;51.118;7.210;2023-08-24T06:42:13;6.17;;;5.57;;
6983;SDS011;3532;51.118;7.210;2023-08-24T06:44:38;8.97;;;5.90;;
6983;SDS011;3532;51.118;7.210;2023-08-24T06:47:04;6.77;;;5.77;;
6983;SDS011;3532;51.118;7.210;2023-08-24T06:49:29;6.40;;;5.80;;
6983;SDS011;3532;51.118;7.210;2023-08-24T06:51:54;9.40;;;6.33;;
6983;SDS011;3532;51.118;7.210;2023-08-24T06:54:20;5.87;;;5.37;;
6983;SDS011;3532;51.118;7.210;2023-08-24T06:56:45;6.07;;;5.53;;
6983;SDS011;3532;51.118;7.210;2023-08-24T06:59:10;9.03;;;5.63;;
6983;SDS011;3532;51.118;7.210;2023-08-24T07:01:38;6.20;;;5.60;;
6983;SDS011;3532;51.118;7.210;2023-08-24T07:04:03;5.60;;;5.10;;
6983;SDS011;3532;51.118;7.210;2023-08-24T07:06:28;6.03;;;5.43;;
6983;SDS011;3532;51.118;7.210;2023-08-24T07:08:54;6.43;;;5.00;;
6983;SDS011;3532;51.118;7.210;2023-08-24T07:11:19;7.83;;;5.23;;
6983;SDS011;3532;51.118;7.210;2023-08-24T07:13:45;6.40;;;5.17;;
6983;SDS011;3532;51.118;7.210;2023-08-24T07:16:11;6.57;;;4.57;;
6983;SDS011;3532;51.118;7.210;2023-08-24T07:18:36;5.17;;;4.67;;
6983;SDS011;3532;51.118;7.210;2023-08-24T07:21:01;4.97;;;4.33;;
6983;SDS011;3532;51.118;7.210;2023-08-24T07:23:27;5.60;;;4.87;;
6983;SDS011;3532;51.118;7.210;2023-08-24T07:25:53;5.70;;;4.97;;
6983;SDS011;3532;51.118;7.210;2023-08-24T07:28:18;4.73;;;4.27;;
6983;SDS011;3532;51.118;7.210;2023-08-24T07:30:44;4.50;;;4.10;;
6983;SDS011;3532;51.118;7.210;2023-08-24T07:33:09;6.57;;;4.90;;
6983;SDS011;3532;51.118;7.210;2023-08-24T07:35:35;5.30;;;4.80;;
6983;SDS011;3532;51.118;7.210;2023-08-24T07:38:00;12.77;;;4.80;;
6983;SDS011;3532;51.118;7.210;2023-08-24T07:40:25;6.87;;;4.60;;
6983;SDS011;3532;51.118;7.210;2023-08-24T07:42:51;13.17;;;4.67;;
6983;SDS011;3532;51.118;7.210;2023-08-24T07:45:21;4.63;;;4.20;;
6983;SDS011;3532;51.118;7.210;2023-08-24T07:47:48;4.70;;;4.30;;
6983;SDS011;3532;51.118;7.210;2023-08-24T07:50:13;5.43;;;4.40;;
6983;SDS011;3532;51.118;7.210;2023-08-24T07:52:39;4.47;;;4.03;;
6983;SDS011;3532;51.118;7.210;2023-08-24T07:55:04;4.30;;;3.50;;
6983;SDS011;3532;51.118;7.210;2023-08-24T07:57:32;4.80;;;4.00;;
6983;SDS011;3532;51.118;7.210;2023-08-24T07:59:59;4.43;;;4.03;;
6983;SDS011;3532;51.118;7.210;2023-08-24T08:02:24;5.17;;;3.87;;
6983;SDS011;3532;51.118;7.210;2023-08-24T08:04:50;9.17;;;4.10;;
6983;SDS011;3532;51.118;7.210;2023-08-24T08:07:15;4.43;;;3.60;;
6983;SDS011;3532;51.118;7.210;2023-08-24T08:09:40;6.03;;;4.03;;
6983;SDS011;3532;51.118;7.210;2023-08-24T08:12:06;5.23;;;3.70;;
6983;SDS011;3532;51.118;7.210;2023-08-24T08:14:31;4.60;;;4.07;;
6983;SDS011;3532;51.118;7.210;2023-08-24T08:16:56;3.83;;;3.43;;
6983;SDS011;3532;51.118;7.210;2023-08-24T08:19:22;4.60;;;3.57;;
6983;SDS011;3532;51.118;7.210;2023-08-24T08:21:50;4.30;;;3.90;;
6983;SDS011;3532;51.118;7.210;2023-08-24T08:24:15;4.17;;;3.57;;
6983;SDS011;3532;51.118;7.210;2023-08-24T08:26:41;3.90;;;3.60;;
6983;SDS011;3532;51.118;7.210;2023-08-24T08:29:06;5.87;;;3.70;;
6983;SDS011;3532;51.118;7.210;2023-08-24T08:31:31;6.30;;;4.00;;
6983;SDS011;3532;51.118;7.210;2023-08-24T08:33:57;4.50;;;3.60;;
6983;SDS011;3532;51.118;7.210;2023-08-24T08:36:22;3.90;;;3.50;;
6983;SDS011;3532;51.118;7.210;2023-08-24T08:38:47;4.07;;;3.67;;
6983;SDS011;3532;51.118;7.210;2023-08-24T08:41:13;3.83;;;3.53;;
6983;SDS011;3532;51.118;7.210;2023-08-24T08:43:39;8.50;;;3.70;;
6983;SDS011;3532;51.118;7.210;2023-08-24T08:46:05;4.20;;;3.80;;
6983;SDS011;3532;51.118;7.210;2023-08-24T08:48:31;5.00;;;3.90;;
6983;SDS011;3532;51.118;7.210;2023-08-24T08:50:57;6.93;;;3.80;;
6983;SDS011;3532;51.118;7.210;2023-08-24T08:53:23;3.40;;;3.10;;
6983;SDS011;3532;51.118;7.210;2023-08-24T08:55:52;5.87;;;3.90;;
6983;SDS011;3532;51.118;7.210;2023-08-24T08:58:18;3.83;;;3.43;;
6983;SDS011;3532;51.118;7.210;2023-08-24T09:00:45;5.67;;;3.53;;
6983;SDS011;3532;51.118;7.210;2023-08-24T09:03:11;5.73;;;3.83;;
6983;SDS011;3532;51.118;7.210;2023-08-24T09:05:37;5.23;;;4.33;;
6983;SDS011;3532;51.118;7.210;2023-08-24T09:08:02;4.73;;;3.87;;
6983;SDS011;3532;51.118;7.210;2023-08-24T09:10:29;3.60;;;3.30;;
6983;SDS011;3532;51.118;7.210;2023-08-24T09:12:55;5.53;;;3.60;;
6983;SDS011;3532;51.118;7.210;2023-08-24T09:15:27;5.97;;;3.90;;
6983;SDS011;3532;51.118;7.210;2023-08-24T09:17:53;3.77;;;3.47;;
6983;SDS011;3532;51.118;7.210;2023-08-24T09:20:19;3.67;;;3.03;;
6983;SDS011;3532;51.118;7.210;2023-08-24T09:22:45;5.60;;;3.93;;
6983;SDS011;3532;51.118;7.210;2023-08-24T09:25:10;3.97;;;3.57;;
6983;SDS011;3532;51.118;7.210;2023-08-24T09:27:36;5.13;;;2.90;;
6983;SDS011;3532;51.118;7.210;2023-08-24T09:30:01;4.20;;;3.10;;
6983;SDS011;3532;51.118;7.210;2023-08-24T09:32:27;3.73;;;3.43;;
6983;SDS011;3532;51.118;7.210;2023-08-24T09:34:53;4.73;;;3.40;;
6983;SDS011;3532;51.118;7.210;2023-08-24T09:37:19;4.23;;;3.57;;
6983;SDS011;3532;51.118;7.210;2023-08-24T09:39:45;5.13;;;3.47;;
6983;SDS011;3532;51.118;7.210;2023-08-24T09:42:11;3.67;;;3.10;;
6983;SDS011;3532;51.118;7.210;2023-08-24T09:44:36;4.00;;;3.60;;
6983;SDS011;3532;51.118;7.210;2023-08-24T09:47:02;4.43;;;3.27;;
6983;SDS011;3532;51.118;7.210;2023-08-24T09:49:34;3.77;;;3.30;;
6983;SDS011;3532;51.118;7.210;2023-08-24T09:51:59;4.60;;;3.57;;
6983;SDS011;3532;51.118;7.210;2023-08-24T09:54:26;3.57;;;3.27;;
6983;SDS011;3532;51.118;7.210;2023-08-24T09:56:52;3.30;;;3.00;;
6983;SDS011;3532;51.118;7.210;2023-08-24T09:59:19;3.43;;;3.10;;
6983;SDS011;3532;51.118;7.210;2023-08-24T10:01:49;3.10;;;2.90;;
6983;SDS011;3532;51.118;7.210;2023-08-24T10:04:21;3.50;;;3.00;;
6983;SDS011;3532;51.118;7.210;2023-08-24T10:06:48;4.63;;;3.37;;
6983;SDS011;3532;51.118;7.210;2023-08-24T10:09:25;3.47;;;3.17;;
6983;SDS011;3532;51.118;7.210;2023-08-24T10:11:56;5.17;;;3.47;;
6983;SDS011;3532;51.118;7.210;2023-08-24T10:14:27;3.53;;;3.23;;
6983;SDS011;3532;51.118;7.210;2023-08-24T10:16:56;5.13;;;3.03;;
6983;SDS011;3532;51.118;7.210;2023-08-24T10:19:22;3.30;;;3.00;;
6983;SDS011;3532;51.118;7.210;2023-08-24T10:21:47;3.43;;;2.83;;
6983;SDS011;3532;51.118;7.210;2023-08-24T10:24:15;5.50;;;3.43;;
6983;SDS011;3532;51.118;7.210;2023-08-24T10:26:41;3.30;;;3.00;;
6983;SDS011;3532;51.118;7.210;2023-08-24T10:29:07;6.37;;;3.10;;
6983;SDS011;3532;51.118;7.210;2023-08-24T10:31:33;8.60;;;3.37;;
6983;SDS011;3532;51.118;7.210;2023-08-24T10:33:58;6.17;;;3.40;;
6983;SDS011;3532;51.118;7.210;2023-08-24T10:36:24;5.70;;;3.27;;
6983;SDS011;3532;51.118;7.210;2023-08-24T10:38:51;3.67;;;3.33;;
6983;SDS011;3532;51.118;7.210;2023-08-24T10:41:21;4.20;;;3.43;;
6983;SDS011;3532;51.118;7.210;2023-08-24T10:43:51;3.50;;;3.20;;
6983;SDS011;3532;51.118;7.210;2023-08-24T10:46:16;4.17;;;3.33;;
6983;SDS011;3532;51.118;7.210;2023-08-24T10:53:38;3.70;;;3.40;;
6983;SDS011;3532;51.118;7.210;2023-08-24T10:56:14;4.77;;;3.30;;
6983;SDS011;3532;51.118;7.210;2023-08-24T10:58:41;3.90;;;3.60;;
6983;SDS011;3532;51.118;7.210;2023-08-24T11:01:07;3.40;;;3.10;;
6983;SDS011;3532;51.118;7.210;2023-08-24T11:03:33;4.10;;;3.70;;
6983;SDS011;3532;51.118;7.210;2023-08-24T11:05:58;3.93;;;3.30;;
6983;SDS011;3532;51.118;7.210;2023-08-24T11:11:21;4.10;;;3.40;;
6983;SDS011;3532;51.118;7.210;2023-08-24T11:14:12;4.30;;;3.60;;
6983;SDS011;3532;51.118;7.210;2023-08-24T11:16:45;3.10;;;2.90;;
6983;SDS011;3532;51.118;7.210;2023-08-24T11:19:11;4.93;;;3.07;;
6983;SDS011;3532;51.118;7.210;2023-08-24T11:21:40;3.70;;;3.37;;
6983;SDS011;3532;51.118;7.210;2023-08-24T11:24:06;3.00;;;2.77;;
6983;SDS011;3532;51.118;7.210;2023-08-24T11:26:33;5.33;;;3.20;;
6983;SDS011;3532;51.118;7.210;2023-08-24T11:28:59;4.30;;;3.17;;
6983;SDS011;3532;51.118;7.210;2023-08-24T11:31:24;5.23;;;3.23;;
6983;SDS011;3532;51.118;7.210;2023-08-24T11:33:53;4.10;;;3.63;;
6983;SDS011;3532;51.118;7.210;2023-08-24T11:36:22;4.83;;;3.17;;
6983;SDS011;3532;51.118;7.210;2023-08-24T11:38:55;7.10;;;3.17;;
6983;SDS011;3532;51.118;7.210;2023-08-24T11:41:21;3.70;;;2.83;;
6983;SDS011;3532;51.118;7.210;2023-08-24T11:43:47;4.20;;;3.13;;
6983;SDS011;3532;51.118;7.210;2023-08-24T11:46:15;5.30;;;3.20;;
6983;SDS011;3532;51.118;7.210;2023-08-24T11:48:41;3.97;;;3.20;;
6983;SDS011;3532;51.118;7.210;2023-08-24T11:51:10;4.03;;;3.30;;
6983;SDS011;3532;51.118;7.210;2023-08-24T11:53:41;6.13;;;3.30;;
6983;SDS011;3532;51.118;7.210;2023-08-24T11:56:08;3.80;;;3.17;;
6983;SDS011;3532;51.118;7.210;2023-08-24T11:58:34;4.30;;;2.80;;
6983;SDS011;3532;51.118;7.210;2023-08-24T12:01:02;3.97;;;3.37;;
6983;SDS011;3532;51.118;7.210;2023-08-24T12:03:28;3.70;;;3.03;;
6983;SDS011;3532;51.118;7.210;2023-08-24T12:05:53;3.93;;;2.53;;
6983;SDS011;3532;51.118;7.210;2023-08-24T12:08:21;5.10;;;3.20;;
6983;SDS011;3532;51.118;7.210;2023-08-24T12:10:47;3.87;;;3.00;;
6983;SDS011;3532;51.118;7.210;2023-08-24T12:13:12;3.50;;;3.20;;
6983;SDS011;3532;51.118;7.210;2023-08-24T12:15:37;6.67;;;3.57;;
6983;SDS011;3532;51.118;7.210;2023-08-24T12:20:35;3.97;;;3.57;;
6983;SDS011;3532;51.118;7.210;2023-08-24T12:23:01;3.73;;;3.17;;
6983;SDS011;3532;51.118;7.210;2023-08-24T12:25:26;5.30;;;3.40;;
6983;SDS011;3532;51.118;7.210;2023-08-24T12:27:52;3.73;;;3.03;;
6983;SDS011;3532;51.118;7.210;2023-08-24T12:30:18;7.83;;;3.33;;
6983;SDS011;3532;51.118;7.210;2023-08-24T12:32:45;3.53;;;3.20;;
6983;SDS011;3532;51.118;7.210;2023-08-24T12:35:13;3.97;;;3.20;;
6983;SDS011;3532;51.118;7.210;2023-08-24T12:37:39;3.13;;;2.53;;
6983;SDS011;3532;51.118;7.210;2023-08-24T12:40:05;5.90;;;3.27;;
6983;SDS011;3532;51.118;7.210;2023-08-24T12:42:31;4.03;;;3.00;;
6983;SDS011;3532;51.118;7.210;2023-08-24T12:44:56;3.53;;;3.17;;
6983;SDS011;3532;51.118;7.210;2023-08-24T12:47:22;5.03;;;3.00;;
6983;SDS011;3532;51.118;7.210;2023-08-24T12:49:47;6.90;;;3.17;;
6983;SDS011;3532;51.118;7.210;2023-08-24T12:52:13;7.33;;;3.63;;
6983;SDS011;3532;51.118;7.210;2023-08-24T12:54:38;6.17;;;2.60;;
6983;SDS011;3532;51.118;7.210;2023-08-24T12:57:04;4.33;;;3.17;;
6983;SDS011;3532;51.118;7.210;2023-08-24T12:59:29;4.20;;;3.30;;
6983;SDS011;3532;51.118;7.210;2023-08-24T13:01:54;4.27;;;3.03;;
6983;SDS011;3532;51.118;7.210;2023-08-24T13:04:20;5.30;;;3.33;;
6983;SDS011;3532;51.118;7.210;2023-08-24T13:06:45;7.27;;;3.53;;
6983;SDS011;3532;51.118;7.210;2023-08-24T13:09:10;11.17;;;3.73;;
6983;SDS011;3532;51.118;7.210;2023-08-24T13:11:36;6.23;;;3.20;;
6983;SDS011;3532;51.118;7.210;2023-08-24T13:14:02;4.33;;;3.50;;
6983;SDS011;3532;51.118;7.210;2023-08-24T13:16:27;3.47;;;3.17;;
6983;SDS011;3532;51.118;7.210;2023-08-24T13:18:53;8.20;;;3.20;;
6983;SDS011;3532;51.118;7.210;2023-08-24T13:21:19;4.30;;;3.20;;
6983;SDS011;3532;51.118;7.210;2023-08-24T13:23:45;5.23;;;3.57;;
6983;SDS011;3532;51.118;7.210;2023-08-24T13:26:20;5.13;;;3.30;;
6983;SDS011;3532;51.118;7.210;2023-08-24T13:28:46;4.67;;;3.63;;
6983;SDS011;3532;51.118;7.210;2023-08-24T13:31:12;5.27;;;3.57;;
6983;SDS011;3532;51.118;7.210;2023-08-24T13:33:37;5.93;;;3.07;;
6983;SDS011;3532;51.118;7.210;2023-08-24T13:36:03;4.00;;;3.27;;
6983;SDS011;3532;51.118;7.210;2023-08-24T13:38:29;5.03;;;3.50;;
6983;SDS011;3532;51.118;7.210;2023-08-24T13:40:54;3.63;;;3.33;;
6983;SDS011;3532;51.118;7.210;2023-08-24T13:43:19;4.10;;;3.40;;
6983;SDS011;3532;51.118;7.210;2023-08-24T13:45:45;4.20;;;3.43;;
6983;SDS011;3532;51.118;7.210;2023-08-24T13:48:10;5.20;;;3.63;;
6983;SDS011;3532;51.118;7.210;2023-08-24T13:50:36;3.80;;;3.40;;
6983;SDS011;3532;51.118;7.210;2023-08-24T13:53:01;8.43;;;4.43;;
6983;SDS011;3532;51.118;7.210;2023-08-24T13:55:26;5.53;;;4.20;;
6983;SDS011;3532;51.118;7.210;2023-08-24T13:57:51;6.27;;;4.40;;
6983;SDS011;3532;51.118;7.210;2023-08-24T14:00:17;5.17;;;4.23;;
6983;SDS011;3532;51.118;7.210;2023-08-24T14:02:42;6.40;;;4.10;;
6983;SDS011;3532;51.118;7.210;2023-08-24T14:05:09;6.27;;;4.13;;
6983;SDS011;3532;51.118;7.210;2023-08-24T14:07:36;8.00;;;4.53;;
6983;SDS011;3532;51.118;7.210;2023-08-24T14:10:02;6.70;;;4.70;;
6983;SDS011;3532;51.118;7.210;2023-08-24T14:12:27;5.83;;;4.33;;
6983;SDS011;3532;51.118;7.210;2023-08-24T14:14:53;9.10;;;4.17;;
6983;SDS011;3532;51.118;7.210;2023-08-24T14:17:18;5.10;;;4.00;;
6983;SDS011;3532;51.118;7.210;2023-08-24T14:19:43;10.60;;;4.87;;
6983;SDS011;3532;51.118;7.210;2023-08-24T14:22:09;5.93;;;4.50;;
6983;SDS011;3532;51.118;7.210;2023-08-24T14:24:34;4.73;;;3.60;;
6983;SDS011;3532;51.118;7.210;2023-08-24T14:27:00;6.27;;;4.03;;
6983;SDS011;3532;51.118;7.210;2023-08-24T14:29:25;6.47;;;4.33;;
6983;SDS011;3532;51.118;7.210;2023-08-24T14:31:51;5.23;;;4.20;;
6983;SDS011;3532;51.118;7.210;2023-08-24T14:34:16;8.37;;;4.27;;
6983;SDS011;3532;51.118;7.210;2023-08-24T14:36:41;4.97;;;4.10;;
6983;SDS011;3532;51.118;7.210;2023-08-24T14:39:07;7.23;;;5.00;;
6983;SDS011;3532;51.118;7.210;2023-08-24T14:41:32;7.77;;;4.60;;
6983;SDS011;3532;51.118;7.210;2023-08-24T14:43:57;7.20;;;4.03;;
6983;SDS011;3532;51.118;7.210;2023-08-24T14:46:23;6.70;;;4.60;;
6983;SDS011;3532;51.118;7.210;2023-08-24T14:48:48;7.43;;;4.93;;
6983;SDS011;3532;51.118;7.210;2023-08-24T14:51:14;7.10;;;4.43;;
6983;SDS011;3532;51.118;7.210;2023-08-24T14:53:42;5.83;;;4.90;;
6983;SDS011;3532;51.118;7.210;2023-08-24T14:56:09;6.87;;;4.07;;
6983;SDS011;3532;51.118;7.210;2023-08-24T14:58:35;5.73;;;3.97;;
6983;SDS011;3532;51.118;7.210;2023-08-24T15:01:01;7.07;;;4.87;;
6983;SDS011;3532;51.118;7.210;2023-08-24T15:03:26;7.37;;;4.40;;
6983;SDS011;3532;51.118;7.210;2023-08-24T15:05:56;5.50;;;4.60;;
6983;SDS011;3532;51.118;7.210;2023-08-24T15:08:33;7.23;;;4.57;;
6983;SDS011;3532;51.118;7.210;2023-08-24T15:11:00;6.90;;;4.03;;
6983;SDS011;3532;51.118;7.210;2023-08-24T15:13:29;7.60;;;4.67;;
6983;SDS011;3532;51.118;7.210;2023-08-24T15:16:23;7.47;;;4.40;;
6983;SDS011;3532;51.118;7.210;2023-08-24T15:18:48;5.57;;;4.53;;
6983;SDS011;3532;51.118;7.210;2023-08-24T15:21:18;5.93;;;3.70;;
6983;SDS011;3532;51.118;7.210;2023-08-24T15:23:49;5.03;;;3.77;;
6983;SDS011;3532;51.118;7.210;2023-08-24T15:29:14;6.47;;;4.17;;
6983;SDS011;3532;51.118;7.210;2023-08-24T15:31:51;3.83;;;3.43;;
6983;SDS011;3532;51.118;7.210;2023-08-24T15:34:38;4.90;;;3.60;;